82C weather

Mauston New Lisbon Union Airport
New Lisbon, Wisconsin, United States

Public forecast

Using degrees Fahrenheit for public forecast. Weather courtesy of forecast.io.

Current aviation weather report (METAR) for Mauston New Lisbon Union Airport

Retrieved 2019/10/18 17:35 UTC (16 minutes ago):

K82C 181735Z AUTO 15015KT 7SM CLR 13/05 A2991 RMK AO2 T01320049

Closest aviation forecast (TAF) to Mauston New Lisbon Union Airport

Forecast is more than 6 hours old.

Closest forecast is Volk Field, 7.8 nm (14.5 km) NW. Retrieved 2019/10/18 09:18 UTC (9 hours ago):

TAF KVOK 180900Z 1809/1915 15007KT 3200 BR SKC QNH2974INS BECMG 1813/1815 18010KT 9999 NSW SKC QNH2975INS BECMG 1820/1821 18010KT 9999 SKC WS020/18040KT QNH2977INS BECMG 1906/1907 18010KT 9999 SKC QNH2974INS BECMG 1910/1911 18010KT 9999 SCT040 QNH2974INS BECMG 1913/1914 19008KT 9999 BKN020 QNH2974INS TX14/1820Z TNM01/1809Z